Time;durP1;ratioP1;P1;durP2;ratioP2;P2;SDS_P1;SDS_P2;PMS_P1;PMS_P2;Temp;Humidity;BMP_temperature;BMP_pressure;BME280_temperature;BME280_humidity;BME280_pressure;Samples;Min_cycle;Max_cycle;Signal;HPM_P1;HPM_P2
2023/04/18 00:02:00;;;;;;;20.77;16.83;;;4.70;99.90;;;;;;5036537;28;20087;-36
2023/04/18 00:04:26;;;;;;;21.55;17.45;;;4.70;99.90;;;;;;5033825;28;20434;-43
2023/04/18 00:06:52;;;;;;;19.70;16.63;;;4.70;99.90;;;;;;5036254;28;20369;-42
2023/04/18 00:09:18;;;;;;;21.00;16.88;;;4.70;99.90;;;;;;5031509;28;20048;-39
2023/04/18 00:11:44;;;;;;;22.35;17.83;;;4.60;99.90;;;;;;5031344;28;20460;-44
2023/04/18 00:14:10;;;;;;;21.02;16.42;;;4.60;99.90;;;;;;5032943;28;20487;-42
2023/04/18 00:16:36;;;;;;;22.27;18.48;;;4.60;99.90;;;;;;5035864;28;20056;-36
2023/04/18 00:19:04;;;;;;;19.23;16.73;;;4.70;99.90;;;;;;5030340;28;20124;-41
2023/04/18 00:21:31;;;;;;;21.95;16.02;;;4.70;99.90;;;;;;5027233;28;20495;-43
2023/04/18 00:23:57;;;;;;;21.05;16.65;;;4.70;99.90;;;;;;5022591;28;20214;-42
2023/04/18 00:26:23;;;;;;;19.33;15.95;;;4.70;99.90;;;;;;5023803;28;20128;-39
2023/04/18 00:28:50;;;;;;;18.40;15.45;;;4.70;99.90;;;;;;5031838;28;20087;-42
2023/04/18 00:31:15;;;;;;;18.60;15.70;;;4.70;99.90;;;;;;5025339;28;20426;-36
2023/04/18 00:33:41;;;;;;;21.75;15.82;;;4.70;99.90;;;;;;5033544;28;20049;-41
2023/04/18 00:36:07;;;;;;;18.65;14.93;;;4.60;99.90;;;;;;5035445;28;20045;-40
2023/04/18 00:38:32;;;;;;;20.75;16.17;;;4.70;99.90;;;;;;5016132;28;20049;-44
2023/04/18 00:40:58;;;;;;;22.92;16.67;;;4.70;99.90;;;;;;5026225;28;20049;-39
2023/04/18 00:43:23;;;;;;;22.13;16.42;;;4.70;99.90;;;;;;5035377;28;20553;-44
2023/04/18 00:45:49;;;;;;;18.30;15.98;;;4.70;99.90;;;;;;5024526;28;20081;-39
2023/04/18 00:48:15;;;;;;;20.08;15.70;;;4.80;99.90;;;;;;5034273;28;20045;-42
2023/04/18 00:50:41;;;;;;;21.83;16.05;;;4.80;99.90;;;;;;5035648;28;20560;-36
2023/04/18 00:53:09;;;;;;;20.42;15.52;;;4.90;99.90;;;;;;5035578;28;20052;-41
2023/04/18 00:55:36;;;;;;;20.90;16.15;;;4.90;99.90;;;;;;5034712;28;20567;-39
2023/04/18 00:58:02;;;;;;;18.48;15.35;;;5.00;99.90;;;;;;5034673;28;20392;-41
2023/04/18 01:00:28;;;;;;;23.58;16.48;;;5.00;99.90;;;;;;5029044;28;20118;-39
2023/04/18 01:02:54;;;;;;;21.10;15.48;;;5.00;99.90;;;;;;5036781;28;20532;-45
2023/04/18 01:05:21;;;;;;;20.40;14.98;;;5.10;99.90;;;;;;5039186;28;20304;-39
2023/04/18 01:07:47;;;;;;;20.23;15.13;;;5.10;99.90;;;;;;5038571;28;20071;-40
2023/04/18 01:10:13;;;;;;;20.17;15.57;;;5.10;99.90;;;;;;5038967;28;20430;-35
2023/04/18 01:12:40;;;;;;;18.45;14.60;;;5.10;99.90;;;;;;5038884;28;20041;-41
2023/04/18 01:15:06;;;;;;;18.90;15.75;;;5.10;99.90;;;;;;5038267;28;20383;-41
2023/04/18 01:17:35;;;;;;;21.42;15.88;;;5.10;99.90;;;;;;5039403;28;20053;-42
2023/04/18 01:20:05;;;;;;;21.15;15.63;;;5.00;99.90;;;;;;5039311;28;20041;-39
2023/04/18 01:22:31;;;;;;;18.45;14.77;;;5.00;99.90;;;;;;5039056;28;20458;-37
2023/04/18 01:24:57;;;;;;;18.98;15.23;;;5.00;99.90;;;;;;5038672;28;20262;-37
2023/04/18 01:27:23;;;;;;;18.33;14.98;;;5.00;99.90;;;;;;5039317;28;20097;-41
2023/04/18 01:29:49;;;;;;;22.77;15.32;;;4.90;99.90;;;;;;5036657;28;20061;-43
2023/04/18 01:32:16;;;;;;;17.67;14.60;;;4.90;99.90;;;;;;5032470;28;20145;-39
2023/04/18 01:34:42;;;;;;;19.73;15.38;;;4.90;99.90;;;;;;5031846;28;20135;-40
2023/04/18 01:37:07;;;;;;;20.63;15.25;;;4.90;99.90;;;;;;5038441;28;20055;-45
2023/04/18 01:39:33;;;;;;;16.40;13.75;;;4.90;99.90;;;;;;5038436;28;20072;-40
2023/04/18 01:42:01;;;;;;;19.00;14.98;;;4.90;99.90;;;;;;5038202;28;20142;-44
2023/04/18 01:44:27;;;;;;;18.45;13.30;;;4.90;99.90;;;;;;5036833;28;20367;-37
2023/04/18 01:46:53;;;;;;;16.15;14.05;;;4.90;99.90;;;;;;5026799;28;20377;-39
2023/04/18 01:49:18;;;;;;;17.33;14.38;;;4.90;99.90;;;;;;5053184;28;20061;-41
2023/04/18 01:51:44;;;;;;;18.13;14.48;;;4.90;99.90;;;;;;5028713;28;20118;-39
2023/04/18 01:54:09;;;;;;;17.05;14.23;;;4.80;99.90;;;;;;5038248;28;20561;-42
2023/04/18 01:56:35;;;;;;;17.65;14.02;;;4.80;99.90;;;;;;5038142;28;20052;-40
2023/04/18 01:59:01;;;;;;;17.63;14.15;;;4.80;99.90;;;;;;5031110;28;20038;-43
2023/04/18 02:01:26;;;;;;;19.55;15.48;;;4.80;99.90;;;;;;5029948;28;20469;-39
2023/04/18 02:03:52;;;;;;;18.90;14.90;;;4.80;99.90;;;;;;5029989;28;20890;-42
2023/04/18 02:06:18;;;;;;;18.10;14.60;;;4.80;99.90;;;;;;5022428;28;20044;-40
2023/04/18 02:08:43;;;;;;;15.80;12.88;;;4.80;99.90;;;;;;5037283;28;20437;-39
2023/04/18 02:11:09;;;;;;;18.65;13.77;;;4.90;99.90;;;;;;5024287;28;20527;-35
2023/04/18 02:13:34;;;;;;;15.52;13.65;;;4.90;99.90;;;;;;5037800;28;20096;-42
2023/04/18 02:16:00;;;;;;;19.83;14.15;;;4.90;99.90;;;;;;5023733;28;20049;-38
2023/04/18 02:18:26;;;;;;;18.35;14.70;;;5.00;99.90;;;;;;5037002;28;20068;-41
2023/04/18 02:20:52;;;;;;;17.27;13.98;;;5.00;99.90;;;;;;5019005;28;20045;-37
2023/04/18 02:23:18;;;;;;;16.55;14.50;;;4.90;99.90;;;;;;5038296;28;20479;-38
2023/04/18 02:25:43;;;;;;;15.73;13.82;;;5.00;99.90;;;;;;5030037;28;20555;-40
2023/04/18 02:28:09;;;;;;;19.90;13.75;;;5.00;99.90;;;;;;5029331;28;20584;-35
2023/04/18 02:30:35;;;;;;;20.58;14.98;;;5.10;99.90;;;;;;5030493;28;20045;-45
2023/04/18 02:33:00;;;;;;;18.95;14.38;;;5.10;99.90;;;;;;5030856;28;20090;-42
2023/04/18 02:35:26;;;;;;;17.63;14.93;;;5.10;99.90;;;;;;5036249;28;20091;-42
2023/04/18 02:37:52;;;;;;;19.73;14.70;;;5.10;99.90;;;;;;5024296;28;20372;-41
2023/04/18 02:40:18;;;;;;;17.48;14.55;;;5.10;99.90;;;;;;5036942;28;20055;-43
2023/04/18 02:42:44;;;;;;;20.02;14.73;;;5.10;99.90;;;;;;5036975;28;20087;-39
2023/04/18 02:45:10;;;;;;;17.40;14.50;;;5.10;99.90;;;;;;5036020;28;20049;-38
2023/04/18 02:47:37;;;;;;;20.35;15.13;;;5.10;99.90;;;;;;5024244;28;20045;-36
2023/04/18 02:50:03;;;;;;;18.95;14.60;;;5.10;99.90;;;;;;5030030;28;20048;-38
2023/04/18 02:52:30;;;;;;;20.80;14.68;;;5.10;99.90;;;;;;5032406;28;20044;-38
2023/04/18 02:54:56;;;;;;;19.20;14.35;;;5.10;99.90;;;;;;5036081;28;20041;-42
2023/04/18 02:57:22;;;;;;;20.90;14.02;;;5.10;99.90;;;;;;5037853;28;20055;-36
2023/04/18 02:59:47;;;;;;;17.55;13.73;;;5.10;99.90;;;;;;5028172;28;20118;-38
2023/04/18 03:02:13;;;;;;;18.08;14.60;;;5.20;99.90;;;;;;5036693;28;20658;-40
2023/04/18 03:04:38;;;;;;;19.08;14.45;;;5.20;99.90;;;;;;5029905;28;20531;-37
2023/04/18 03:07:04;;;;;;;16.75;14.10;;;5.20;99.90;;;;;;5028750;28;20504;-42
2023/04/18 03:09:30;;;;;;;16.33;12.88;;;5.20;99.90;;;;;;5035678;28;20124;-41
2023/04/18 03:11:55;;;;;;;19.10;13.15;;;5.20;99.90;;;;;;5036410;28;20506;-37
2023/04/18 03:14:21;;;;;;;18.40;13.60;;;5.30;99.90;;;;;;5035760;28;20449;-43
2023/04/18 03:16:47;;;;;;;17.02;13.02;;;5.30;99.90;;;;;;5024744;28;20041;-40
2023/04/18 03:19:12;;;;;;;16.88;13.38;;;5.30;99.90;;;;;;5029641;28;20045;-36
2023/04/18 03:21:38;;;;;;;18.20;13.00;;;5.40;99.90;;;;;;5028854;28;20049;-38
2023/04/18 03:24:04;;;;;;;15.77;13.02;;;5.40;99.90;;;;;;5034864;28;20428;-44
2023/04/18 03:26:30;;;;;;;17.17;12.80;;;5.40;99.90;;;;;;5036088;28;20037;-39
2023/04/18 03:28:56;;;;;;;14.98;11.75;;;5.50;99.90;;;;;;5037422;28;20060;-38
2023/04/18 03:31:21;;;;;;;15.43;12.07;;;5.60;99.90;;;;;;5036560;28;20045;-36
2023/04/18 03:33:47;;;;;;;14.63;11.43;;;5.70;99.90;;;;;;5033763;28;20047;-42
2023/04/18 03:36:17;;;;;;;16.05;11.25;;;5.70;99.90;;;;;;5035916;28;20095;-42
2023/04/18 03:38:43;;;;;;;12.95;11.02;;;5.70;99.90;;;;;;5035602;28;20095;-38
2023/04/18 03:41:09;;;;;;;15.65;11.57;;;5.70;99.90;;;;;;5022430;28;20045;-37
2023/04/18 03:43:35;;;;;;;14.55;10.93;;;5.80;99.90;;;;;;5036098;28;20088;-41
2023/04/18 03:46:01;;;;;;;15.90;12.00;;;5.70;99.90;;;;;;5035351;28;20067;-38
2023/04/18 03:48:27;;;;;;;14.52;12.05;;;5.70;99.90;;;;;;5035045;28;20642;-36
2023/04/18 03:50:53;;;;;;;14.75;12.35;;;5.70;99.90;;;;;;5035502;28;20053;-43
2023/04/18 03:53:19;;;;;;;13.68;10.73;;;5.70;99.90;;;;;;5033954;28;20106;-39
2023/04/18 03:55:44;;;;;;;12.80;10.75;;;5.70;99.90;;;;;;5033654;28;20135;-39
2023/04/18 03:58:10;;;;;;;13.13;10.52;;;5.70;99.90;;;;;;5035385;28;20041;-40
2023/04/18 04:00:36;;;;;;;14.70;10.18;;;5.70;99.90;;;;;;5028775;28;20392;-40
2023/04/18 04:03:02;;;;;;;12.80;10.55;;;5.70;99.90;;;;;;5027730;28;20060;-39
2023/04/18 04:05:27;;;;;;;14.52;11.07;;;5.70;99.90;;;;;;5026883;28;20045;-38
2023/04/18 04:07:53;;;;;;;14.27;11.07;;;5.70;99.90;;;;;;5034785;28;20048;-44
2023/04/18 04:10:19;;;;;;;13.43;11.18;;;5.70;99.90;;;;;;5035998;28;20045;-36
2023/04/18 04:12:45;;;;;;;11.55;10.00;;;5.60;99.90;;;;;;5035451;28;20052;-37
2023/04/18 04:15:11;;;;;;;12.73;10.65;;;5.50;99.90;;;;;;5035511;28;20053;-35
2023/04/18 04:17:37;;;;;;;13.68;10.80;;;5.40;99.90;;;;;;5036142;28;20313;-40
2023/04/18 04:20:04;;;;;;;14.88;11.07;;;5.30;99.90;;;;;;5035623;28;20465;-37
2023/04/18 04:22:30;;;;;;;12.05;9.88;;;5.20;99.90;;;;;;5035623;28;20223;-39
2023/04/18 04:24:56;;;;;;;14.38;10.88;;;5.20;99.90;;;;;;5033785;28;20506;-40
2023/04/18 04:27:23;;;;;;;13.93;10.77;;;5.10;99.90;;;;;;5034939;28;20045;-43
2023/04/18 04:29:51;;;;;;;11.55;10.23;;;5.10;99.90;;;;;;5035814;28;20080;-36
2023/04/18 04:32:17;;;;;;;13.50;10.45;;;5.20;99.90;;;;;;5034845;28;20053;-40
2023/04/18 04:34:45;;;;;;;12.35;10.10;;;5.20;99.90;;;;;;5034617;28;20041;-39
2023/04/18 04:37:12;;;;;;;12.35;9.88;;;5.20;99.90;;;;;;5036126;28;20512;-42
2023/04/18 04:39:38;;;;;;;12.10;10.38;;;5.30;99.90;;;;;;5037694;28;20118;-39
2023/04/18 04:42:04;;;;;;;13.25;10.27;;;5.30;99.90;;;;;;5027425;28;20045;-41
2023/04/18 04:44:30;;;;;;;11.60;9.80;;;5.40;99.90;;;;;;5039086;28;20124;-35
2023/04/18 04:46:56;;;;;;;13.98;11.07;;;5.40;99.90;;;;;;5039163;28;20889;-39
2023/04/18 04:49:21;;;;;;;12.25;10.25;;;5.50;99.90;;;;;;5038954;28;20501;-38
2023/04/18 04:51:47;;;;;;;12.75;10.10;;;5.60;99.90;;;;;;5054867;28;20056;-39
2023/04/18 04:54:13;;;;;;;11.63;9.82;;;5.60;99.90;;;;;;5038889;28;20037;-40
2023/04/18 04:56:38;;;;;;;11.98;9.30;;;5.70;99.90;;;;;;5039008;28;20041;-36
2023/04/18 04:59:04;;;;;;;12.38;9.38;;;5.80;99.90;;;;;;5032333;28;20041;-46
2023/04/18 05:01:30;;;;;;;14.23;9.65;;;5.80;99.90;;;;;;5031940;28;20050;-42
2023/04/18 05:03:56;;;;;;;12.30;9.43;;;5.90;99.90;;;;;;5031908;28;20391;-47
2023/04/18 05:06:22;;;;;;;11.20;10.00;;;6.00;99.90;;;;;;5026279;28;20043;-41
2023/04/18 05:08:49;;;;;;;13.82;9.90;;;6.00;99.90;;;;;;5025374;28;20048;-38
2023/04/18 05:11:15;;;;;;;11.13;9.65;;;6.10;99.90;;;;;;5038789;28;20051;-40
2023/04/18 05:13:41;;;;;;;10.77;8.73;;;6.20;99.90;;;;;;5037914;28;20045;-41
2023/04/18 05:16:07;;;;;;;9.07;7.80;;;6.40;99.90;;;;;;5039102;28;20041;-45
2023/04/18 05:18:33;;;;;;;11.15;8.65;;;6.50;99.90;;;;;;5053481;28;20080;-36
2023/04/18 05:20:59;;;;;;;16.20;8.68;;;6.60;99.90;;;;;;5039327;28;20501;-36
2023/04/18 05:23:24;;;;;;;10.35;7.88;;;6.80;99.90;;;;;;5039289;28;20045;-41
2023/04/18 05:25:51;;;;;;;10.73;7.55;;;7.00;99.90;;;;;;5039213;28;20500;-41
2023/04/18 05:28:16;;;;;;;12.02;8.05;;;7.40;99.90;;;;;;5037938;28;20084;-36
2023/04/18 05:30:44;;;;;;;11.52;8.23;;;7.90;99.90;;;;;;5038210;28;20572;-43
2023/04/18 05:33:09;;;;;;;10.10;8.57;;;8.10;99.90;;;;;;5038063;28;20045;-38
2023/04/18 05:35:35;;;;;;;9.13;7.45;;;8.10;99.90;;;;;;5038369;28;20079;-42
2023/04/18 05:38:01;;;;;;;8.60;7.70;;;8.10;99.90;;;;;;5038518;28;20137;-40
2023/04/18 05:40:27;;;;;;;10.68;8.00;;;7.90;99.90;;;;;;5038763;28;20047;-36
2023/04/18 05:42:53;;;;;;;11.70;8.02;;;7.80;99.90;;;;;;5025231;28;20091;-44
2023/04/18 05:45:18;;;;;;;10.45;7.32;;;7.80;99.90;;;;;;5030902;28;20124;-40
2023/04/18 05:47:44;;;;;;;10.02;8.10;;;7.70;99.90;;;;;;5031962;28;20047;-37
2023/04/18 05:50:10;;;;;;;12.00;8.13;;;7.60;99.90;;;;;;5037895;28;20534;-39
2023/04/18 05:52:37;;;;;;;11.73;7.80;;;7.60;99.90;;;;;;5036573;28;20041;-40
2023/04/18 05:55:04;;;;;;;12.02;8.35;;;7.50;99.90;;;;;;5038077;28;20151;-40
2023/04/18 05:57:30;;;;;;;9.63;7.95;;;7.50;99.90;;;;;;5037635;28;20820;-42
2023/04/18 05:59:56;;;;;;;10.90;8.40;;;7.60;99.90;;;;;;5031304;28;20387;-38
2023/04/18 06:02:22;;;;;;;10.23;8.23;;;7.60;99.90;;;;;;5038397;28;20371;-43
2023/04/18 06:04:48;;;;;;;11.60;8.35;;;7.60;99.90;;;;;;5037623;28;20041;-37
2023/04/18 06:07:14;;;;;;;10.90;7.97;;;7.60;99.90;;;;;;5037455;28;20405;-40
2023/04/18 06:09:40;;;;;;;9.60;7.82;;;7.60;99.90;;;;;;5038424;28;20032;-36
2023/04/18 06:12:05;;;;;;;10.27;7.82;;;7.60;99.90;;;;;;5037934;28;20160;-40
2023/04/18 06:14:31;;;;;;;10.05;8.35;;;7.60;99.90;;;;;;5018483;28;20069;-41
2023/04/18 06:16:57;;;;;;;11.77;8.82;;;7.60;99.90;;;;;;5032314;28;20044;-36
2023/04/18 06:19:23;;;;;;;10.65;8.82;;;7.70;99.90;;;;;;5038370;28;20076;-40
2023/04/18 06:21:48;;;;;;;10.68;8.20;;;7.80;99.90;;;;;;5038297;28;20044;-43
2023/04/18 06:24:14;;;;;;;10.00;8.77;;;7.80;99.90;;;;;;5037179;28;20434;-42
2023/04/18 06:26:40;;;;;;;12.45;9.27;;;7.80;99.90;;;;;;5037763;28;20052;-42
2023/04/18 06:29:06;;;;;;;12.05;9.13;;;7.90;99.90;;;;;;5018436;28;20041;-39
2023/04/18 06:31:31;;;;;;;11.55;8.98;;;7.90;99.90;;;;;;5037842;28;20060;-42
2023/04/18 06:33:57;;;;;;;11.43;9.30;;;7.90;99.90;;;;;;5052721;28;20146;-39
2023/04/18 06:36:23;;;;;;;15.35;10.35;;;7.90;99.90;;;;;;5029705;28;20551;-40
2023/04/18 06:38:48;;;;;;;12.77;9.20;;;7.90;99.90;;;;;;5036785;28;20045;-41
2023/04/18 06:41:14;;;;;;;13.35;9.95;;;8.00;99.90;;;;;;5037090;28;20049;-43
2023/04/18 06:43:40;;;;;;;11.77;8.95;;;8.00;99.90;;;;;;5036439;28;20049;-44
2023/04/18 06:46:06;;;;;;;11.52;8.98;;;8.10;99.90;;;;;;5034038;28;20037;-38
2023/04/18 06:48:31;;;;;;;15.25;10.55;;;8.20;99.90;;;;;;5034679;28;20105;-43
2023/04/18 06:50:57;;;;;;;12.85;10.38;;;8.40;99.90;;;;;;5035471;28;20511;-40
2023/04/18 06:53:23;;;;;;;13.50;10.25;;;8.60;99.90;;;;;;5037020;28;20107;-44
2023/04/18 06:55:49;;;;;;;12.00;9.40;;;9.90;99.90;;;;;;5035669;28;20387;-39
2023/04/18 06:58:15;;;;;;;11.30;9.02;;;11.50;99.90;;;;;;5035781;28;20048;-44
2023/04/18 07:00:42;;;;;;;11.65;9.75;;;12.90;99.90;;;;;;5032691;28;20111;-42
2023/04/18 07:03:11;;;;;;;13.85;10.57;;;13.50;99.90;;;;;;5023806;28;20048;-39
2023/04/18 07:05:38;;;;;;;11.38;10.00;;;13.20;99.90;;;;;;5035638;28;20525;-41
2023/04/18 07:08:04;;;;;;;11.35;9.23;;;12.20;99.90;;;;;;5035649;28;20156;-43
2023/04/18 07:10:29;;;;;;;10.60;9.43;;;11.40;99.90;;;;;;5036809;28;20094;-39
2023/04/18 07:12:55;;;;;;;12.65;9.85;;;11.40;99.90;;;;;;5029237;28;20488;-43
2023/04/18 07:15:21;;;;;;;11.10;9.30;;;11.00;99.90;;;;;;5030918;28;20502;-47
2023/04/18 07:17:47;;;;;;;13.88;10.73;;;10.40;99.90;;;;;;5036775;28;20037;-35
2023/04/18 07:20:13;;;;;;;12.82;9.48;;;10.00;99.90;;;;;;5035769;28;20045;-37
2023/04/18 07:22:40;;;;;;;15.07;9.75;;;9.70;99.90;;;;;;5035072;28;20061;-41
2023/04/18 07:25:06;;;;;;;11.55;9.85;;;9.50;99.90;;;;;;5048006;28;20048;-44
2023/04/18 07:27:34;;;;;;;14.73;9.25;;;9.40;99.90;;;;;;5021411;28;20280;-37
2023/04/18 07:30:00;;;;;;;12.07;9.07;;;9.20;99.90;;;;;;5032737;28;20043;-43
2023/04/18 07:32:26;;;;;;;13.75;10.02;;;9.10;99.90;;;;;;5034409;28;20044;-41
2023/04/18 07:34:52;;;;;;;11.00;9.38;;;9.00;99.90;;;;;;5032775;28;20087;-42
2023/04/18 07:37:20;;;;;;;13.27;9.40;;;9.00;99.90;;;;;;5029914;28;20408;-42
2023/04/18 07:39:48;;;;;;;14.60;10.13;;;9.10;99.90;;;;;;5017924;28;20100;-42
2023/04/18 07:42:14;;;;;;;12.40;9.15;;;9.20;99.90;;;;;;5028245;28;20323;-41
2023/04/18 07:44:40;;;;;;;17.08;10.70;;;9.10;99.90;;;;;;5034081;28;20092;-36
2023/04/18 07:47:09;;;;;;;10.70;8.85;;;9.10;99.90;;;;;;5035880;28;20140;-41
2023/04/18 07:49:36;;;;;;;10.85;9.60;;;9.00;99.90;;;;;;5034821;28;20360;-41
2023/04/18 07:52:02;;;;;;;17.30;10.38;;;8.90;99.90;;;;;;5036641;28;20045;-38
2023/04/18 07:54:27;;;;;;;12.02;9.57;;;8.90;99.90;;;;;;5034429;28;20045;-40
2023/04/18 07:56:53;;;;;;;13.43;10.13;;;9.00;99.90;;;;;;5027816;28;20101;-42
2023/04/18 07:59:19;;;;;;;13.43;9.27;;;8.90;99.90;;;;;;5025076;28;20103;-40
2023/04/18 08:01:44;;;;;;;15.30;9.63;;;9.00;99.90;;;;;;5032856;28;20825;-38
2023/04/18 08:04:10;;;;;;;10.45;9.43;;;9.10;99.90;;;;;;5034507;28;20569;-44
2023/04/18 08:06:36;;;;;;;13.10;10.02;;;9.30;99.90;;;;;;5034837;28;20114;-39
2023/04/18 08:09:05;;;;;;;12.43;9.65;;;9.40;99.90;;;;;;5034987;28;20037;-42
2023/04/18 08:11:32;;;;;;;12.95;8.98;;;9.60;99.90;;;;;;5034555;28;20044;-43
2023/04/18 08:13:57;;;;;;;12.50;9.60;;;9.70;99.90;;;;;;5034790;28;20483;-36
2023/04/18 08:16:23;;;;;;;11.65;9.07;;;9.80;99.90;;;;;;5036157;28;20142;-46
2023/04/18 08:18:49;;;;;;;13.38;10.88;;;9.90;99.90;;;;;;5035456;28;20060;-41
2023/04/18 08:21:14;;;;;;;12.18;10.02;;;10.10;99.90;;;;;;5035990;28;20130;-40
2023/04/18 08:23:40;;;;;;;11.05;9.10;;;10.50;99.90;;;;;;5021891;28;20040;-38
2023/04/18 08:26:06;;;;;;;12.55;10.13;;;10.80;99.90;;;;;;5026060;28;20045;-40
2023/04/18 08:28:31;;;;;;;12.45;10.50;;;11.10;99.90;;;;;;5029271;28;20472;-37
2023/04/18 08:30:57;;;;;;;12.90;9.85;;;11.30;99.90;;;;;;5035136;28;20041;-41
2023/04/18 08:33:23;;;;;;;26.50;10.45;;;11.30;99.90;;;;;;5017476;28;20487;-40
2023/04/18 08:35:50;;;;;;;10.88;9.30;;;11.30;99.90;;;;;;5026746;28;20072;-40
2023/04/18 08:38:17;;;;;;;12.68;8.90;;;11.00;99.90;;;;;;5033906;28;20120;-44
2023/04/18 08:40:43;;;;;;;14.48;9.65;;;11.00;99.90;;;;;;5036223;28;20064;-41
2023/04/18 08:43:13;;;;;;;9.68;8.68;;;11.10;99.90;;;;;;5038360;28;20080;-43
2023/04/18 08:45:42;;;;;;;12.80;8.65;;;11.20;99.90;;;;;;5035442;28;20102;-41
2023/04/18 08:48:15;;;;;;;13.02;9.07;;;11.30;99.90;;;;;;5034941;28;20476;-44
2023/04/18 08:50:41;;;;;;;9.60;8.50;;;11.30;99.90;;;;;;5035260;28;20907;-43
2023/04/18 08:53:07;;;;;;;11.73;9.35;;;11.00;99.90;;;;;;5035427;28;20072;-42
2023/04/18 08:55:34;;;;;;;11.65;8.88;;;11.00;99.90;;;;;;5034844;28;20049;-45
2023/04/18 08:58:00;;;;;;;10.73;8.77;;;11.20;99.90;;;;;;5035169;28;20478;-46
2023/04/18 09:00:26;;;;;;;11.75;8.35;;;11.30;99.90;;;;;;5028961;28;20563;-44
2023/04/18 09:02:55;;;;;;;10.82;9.43;;;11.40;99.90;;;;;;5035440;28;20045;-41
2023/04/18 09:05:25;;;;;;;11.15;9.20;;;11.60;99.90;;;;;;5033310;28;20450;-42
2023/04/18 09:07:55;;;;;;;11.23;9.27;;;11.40;99.90;;;;;;5035274;28;20049;-42
2023/04/18 09:10:24;;;;;;;9.95;8.55;;;11.40;99.90;;;;;;5035745;28;20076;-41
2023/04/18 09:12:49;;;;;;;13.55;9.55;;;11.40;99.90;;;;;;5028619;28;20499;-40
2023/04/18 09:15:19;;;;;;;12.05;8.50;;;11.30;99.90;;;;;;5027273;28;20091;-44
2023/04/18 09:17:50;;;;;;;11.73;8.82;;;11.20;99.90;;;;;;5027666;28;20049;-39
2023/04/18 09:20:36;;;;;;;11.02;8.85;;;11.20;99.90;;;;;;5030202;28;20048;-48
2023/04/18 09:23:04;;;;;;;11.23;8.45;;;11.20;99.90;;;;;;5035739;28;20049;-40
2023/04/18 09:25:43;;;;;;;12.18;8.65;;;11.30;99.90;;;;;;5037199;28;20186;-39
2023/04/18 09:28:30;;;;;;;14.18;9.68;;;11.40;99.90;;;;;;5038181;28;20480;-41
2023/04/18 09:31:10;;;;;;;11.60;8.55;;;11.50;99.90;;;;;;5039118;28;20048;-43
2023/04/18 09:33:36;;;;;;;10.98;8.40;;;11.70;99.90;;;;;;5032752;28;20108;-45
2023/04/18 09:36:22;;;;;;;10.05;8.48;;;11.80;99.90;;;;;;5031286;28;20183;-42
2023/04/18 09:38:50;;;;;;;8.82;7.60;;;11.80;99.90;;;;;;5038293;28;20036;-40
2023/04/18 09:41:16;;;;;;;8.85;7.72;;;11.80;99.90;;;;;;5038669;28;20053;-41
2023/04/18 09:43:43;;;;;;;11.00;8.13;;;11.80;99.90;;;;;;5038956;28;20080;-39
2023/04/18 09:46:09;;;;;;;12.25;8.35;;;11.90;99.90;;;;;;5039516;28;20048;-37
2023/04/18 09:48:35;;;;;;;9.38;7.55;;;12.10;99.90;;;;;;5038419;28;20041;-41
2023/04/18 09:51:06;;;;;;;8.85;6.85;;;12.20;99.90;;;;;;5028380;28;20052;-44
2023/04/18 09:53:39;;;;;;;8.13;7.32;;;12.20;99.90;;;;;;5038203;28;20041;-44
2023/04/18 09:56:28;;;;;;;9.65;7.80;;;12.10;99.90;;;;;;5022857;28;20583;-40
2023/04/18 09:59:06;;;;;;;8.70;7.05;;;12.00;99.90;;;;;;5018266;28;20497;-48
2023/04/18 10:01:33;;;;;;;8.15;6.75;;;11.90;99.90;;;;;;5018551;28;20388;-45
2023/04/18 10:04:02;;;;;;;8.75;7.10;;;11.90;99.90;;;;;;5031977;28;20064;-39
2023/04/18 10:06:27;;;;;;;9.48;7.30;;;11.90;99.90;;;;;;5038378;28;20510;-39
2023/04/18 10:08:54;;;;;;;8.35;7.50;;;12.00;99.90;;;;;;5037736;28;20053;-45
2023/04/18 10:11:20;;;;;;;9.40;7.75;;;12.10;99.90;;;;;;5039183;28;20049;-37
2023/04/18 10:13:54;;;;;;;13.40;7.63;;;12.00;99.90;;;;;;5051634;28;20049;-42
2023/04/18 10:16:20;;;;;;;11.93;7.65;;;12.00;99.90;;;;;;5028444;28;20049;-43
2023/04/18 10:18:48;;;;;;;8.30;6.93;;;12.10;99.90;;;;;;5035867;28;20398;-40
2023/04/18 10:21:14;;;;;;;8.63;7.60;;;12.20;99.90;;;;;;5038261;28;20053;-40
2023/04/18 10:23:40;;;;;;;9.25;8.07;;;12.20;99.90;;;;;;5037024;28;20060;-37
2023/04/18 10:26:09;;;;;;;8.98;7.70;;;12.20;99.90;;;;;;5038347;28;20051;-46
2023/04/18 10:28:57;;;;;;;9.35;7.70;;;12.20;99.90;;;;;;5037101;28;20148;-41
2023/04/18 10:31:24;;;;;;;10.35;7.60;;;12.20;99.90;;;;;;5018299;28;20529;-44
2023/04/18 10:33:57;;;;;;;9.50;8.02;;;12.30;99.90;;;;;;5025165;28;20049;-37
2023/04/18 10:36:23;;;;;;;11.48;8.02;;;12.30;99.90;;;;;;5037548;28;20080;-46
2023/04/18 10:38:52;;;;;;;9.13;7.80;;;12.30;99.90;;;;;;5037712;28;20045;-42
2023/04/18 10:41:21;;;;;;;9.85;7.60;;;12.30;99.90;;;;;;5035750;28;20488;-41
2023/04/18 10:44:13;;;;;;;9.18;7.95;;;12.40;99.90;;;;;;5036726;28;20773;-42
2023/04/18 10:46:40;;;;;;;8.88;7.90;;;12.60;99.90;;;;;;5030825;28;20095;-46
2023/04/18 10:49:12;;;;;;;9.18;7.85;;;12.70;99.90;;;;;;5030284;28;20569;-40
2023/04/18 10:51:38;;;;;;;11.05;8.57;;;12.70;99.90;;;;;;5025567;28;20063;-46
2023/04/18 10:54:08;;;;;;;9.50;7.85;;;12.70;99.90;;;;;;5037342;28;20131;-45
2023/04/18 10:56:34;;;;;;;9.80;8.80;;;12.90;99.90;;;;;;5038114;28;20143;-41
2023/04/18 10:59:02;;;;;;;9.05;8.15;;;13.00;99.90;;;;;;5031244;28;20503;-40
2023/04/18 11:01:35;;;;;;;8.65;7.40;;;13.10;99.90;;;;;;5030974;28;20053;-38
2023/04/18 11:04:09;;;;;;;9.15;8.20;;;13.00;99.90;;;;;;5030215;28;20055;-41
2023/04/18 11:06:49;;;;;;;8.32;7.50;;;13.10;99.90;;;;;;5036992;28;20044;-48
2023/04/18 11:09:15;;;;;;;8.50;7.60;;;13.20;99.90;;;;;;5036916;28;20114;-44
2023/04/18 11:11:42;;;;;;;9.13;8.20;;;13.10;99.90;;;;;;5027380;28;20160;-45
2023/04/18 11:14:08;;;;;;;11.52;8.10;;;13.20;99.90;;;;;;5033720;28;20045;-44
2023/04/18 11:16:33;;;;;;;11.02;8.63;;;13.20;99.90;;;;;;5037025;28;20045;-45
2023/04/18 11:18:59;;;;;;;9.32;8.30;;;13.10;99.90;;;;;;5052099;28;20048;-37
2023/04/18 11:21:26;;;;;;;8.68;7.78;;;13.10;99.90;;;;;;5036826;28;20103;-38
2023/04/18 11:23:56;;;;;;;9.65;8.05;;;13.10;99.90;;;;;;5047411;28;20247;-42
2023/04/18 11:26:24;;;;;;;11.40;8.63;;;13.20;99.90;;;;;;5017322;28;20050;-47
2023/04/18 11:28:54;;;;;;;10.27;8.45;;;13.30;99.90;;;;;;5032380;28;20049;-41
2023/04/18 11:31:24;;;;;;;11.00;9.25;;;13.50;99.90;;;;;;5036944;28;20052;-43
2023/04/18 11:33:51;;;;;;;11.75;8.88;;;13.40;99.90;;;;;;5036638;28;20053;-41
2023/04/18 11:36:16;;;;;;;10.70;9.05;;;13.40;99.90;;;;;;5051030;28;20060;-41
2023/04/18 11:38:42;;;;;;;10.57;9.43;;;13.30;99.90;;;;;;5029734;28;20050;-43
2023/04/18 11:41:13;;;;;;;11.88;9.30;;;13.30;99.90;;;;;;5030494;28;20464;-40
2023/04/18 11:43:42;;;;;;;10.25;9.25;;;13.20;99.90;;;;;;5029417;28;20049;-38
2023/04/18 11:46:08;;;;;;;11.48;10.27;;;13.20;99.90;;;;;;5031806;28;20114;-40
2023/04/18 11:48:38;;;;;;;13.48;9.40;;;13.30;99.90;;;;;;5035356;28;20824;-45
2023/04/18 11:51:05;;;;;;;10.38;8.52;;;13.30;99.90;;;;;;5035023;28;20048;-48
2023/04/18 11:53:35;;;;;;;11.05;8.65;;;13.30;99.90;;;;;;5036312;28;20079;-43
2023/04/18 11:56:02;;;;;;;10.52;9.52;;;13.30;99.90;;;;;;5036600;28;20055;-42
2023/04/18 11:58:32;;;;;;;10.30;9.02;;;13.30;99.90;;;;;;5034484;28;20045;-42
2023/04/18 12:00:58;;;;;;;12.27;9.20;;;13.40;99.90;;;;;;5031711;28;20052;-44
2023/04/18 12:03:24;;;;;;;10.00;9.00;;;13.40;99.90;;;;;;5027596;28;20124;-43
2023/04/18 12:05:59;;;;;;;13.40;9.63;;;13.40;99.90;;;;;;5032679;28;20055;-39
2023/04/18 12:08:25;;;;;;;13.00;8.95;;;13.40;99.90;;;;;;5050600;28;20057;-42
2023/04/18 12:10:52;;;;;;;12.07;9.73;;;13.50;99.90;;;;;;5022882;28;20037;-41
2023/04/18 12:13:24;;;;;;;11.65;8.70;;;13.60;99.90;;;;;;5036089;28;20045;-42
2023/04/18 12:15:50;;;;;;;14.45;9.38;;;13.60;99.90;;;;;;5035651;28;20045;-41
2023/04/18 12:18:18;;;;;;;11.27;9.52;;;13.50;99.90;;;;;;5050735;28;20098;-46
2023/04/18 12:20:49;;;;;;;11.85;8.45;;;13.60;99.90;;;;;;5035595;28;20102;-40
2023/04/18 12:23:34;;;;;;;9.00;8.13;;;13.60;99.90;;;;;;5033767;28;20068;-38
2023/04/18 12:26:04;;;;;;;9.52;8.13;;;13.60;99.90;;;;;;5016181;28;20103;-41
2023/04/18 12:28:31;;;;;;;12.50;9.20;;;13.60;99.90;;;;;;5031614;28;20041;-39
2023/04/18 12:30:57;;;;;;;10.23;8.93;;;13.70;99.90;;;;;;5024661;28;20585;-46
2023/04/18 12:33:23;;;;;;;9.68;8.68;;;13.60;99.90;;;;;;5031930;28;20575;-43
2023/04/18 12:35:49;;;;;;;10.20;9.15;;;13.60;99.90;;;;;;5036139;28;20044;-39
2023/04/18 12:38:20;;;;;;;10.98;8.98;;;13.60;99.90;;;;;;5050393;28;20045;-39
2023/04/18 12:40:45;;;;;;;9.45;8.45;;;13.70;99.90;;;;;;5036111;28;20045;-42